Classifiche di sempre
Migliori tempi personali validi di team tra tutti gli eventi e le stagioni. Ogni team compare una sola volta per divisione.
Cerca per nome e apri la pagina in cui è classificato questo record di divisione.
134,451 team in classifica
| Pos. | Pos. AG | Team | Nazionalità | Categoria età | TempoMiglior tempo | Distacco |
|---|---|---|---|---|---|---|
| 123551 | #4047 | Russell Linman & Abigail LinmanUSA · X 45-49 · AG #4047 | USA | X 45-49 | 1:46:45 | +57:32 |
| 123552 | #16474 | Flavia Leite & Thiago AssumpcaoITA · X 40-44 · AG #16474 | ITA | X 40-44 | 1:46:45 | +57:32 |
| 123553 | #15221 | Sabine Wick & Marco SattlerGER · X 35-39 · AG #15221 | GER | X 35-39 | 1:46:45 | +57:32 |
| 123554 | #43692 | Martina Mazzina & Andrea MazzinaITA · X 30-34 · AG #43692 | ITA | X 30-34 | 1:46:45 | +57:32 |
| 123555 | #43693 | Christelle Mauger & Benjamin DupinFRA · X 30-34 · AG #43693 | FRA | X 30-34 | 1:46:45 | +57:32 |
| 123556 | #4048 | Tim Brickle & Simone PayneGBR · X 45-49 · AG #4048 | GBR | X 45-49 | 1:46:45 | +57:32 |
| 123557 | #43694 | Jacqueline Lak & Felipe DelgadoSUI · X 30-34 · AG #43694 | SUI | X 30-34 | 1:46:45 | +57:32 |
| 123558 | #15222 | James Alfred Pagsibigan & Mutya LunaPHI · X 35-39 · AG #15222 | PHI | X 35-39 | 1:46:45 | +57:32 |
| 123559 | #16475 | Tony Gee & Cherry WangTPE · X 40-44 · AG #16475 | TPE | X 40-44 | 1:46:45 | +57:32 |
| 123560 | -- | Jose Maria Lope Cancio & Daniela Pertejo OrtizESP · X XU29 | ESP | X XU29 | 1:46:45 | +57:32 |
| 123561 | #16476 | Nick Tilbury & Pamela HollambyGBR · X 40-44 · AG #16476 | GBR | X 40-44 | 1:46:45 | +57:32 |
| 123562 | #16477 | Linda Cowan & Simon NelsonGBR · X 40-44 · AG #16477 | GBR | X 40-44 | 1:46:45 | +57:32 |
| 123563 | -- | Leo Arend & Lea FrickeGER · X XU29 | GER | X XU29 | 1:46:45 | +57:32 |
| 123564 | -- | Mariana Almaraz Espejo & Ricardo VargasMEX · X XU29 | MEX | X XU29 | 1:46:45 | +57:32 |
| 123565 | #43695 | Sarah Guinon & Max HoganUSA · X 30-34 · AG #43695 | USA | X 30-34 | 1:46:45 | +57:32 |
| 123566 | #18938 | Parin Pakarasang & Sirikanda JariyanukoonTHA · X 25-29 · AG #18938 | THA | X 25-29 | 1:46:45 | +57:32 |
| 123567 | #18939 | Valentin De Luca & Isaline VanhemelryckBEL · X 25-29 · AG #18939 | BEL | X 25-29 | 1:46:45 | +57:32 |
| 123568 | #16478 | Daniel C. Baur & Susan PerezX 40-44 · AG #16478 | -- | X 40-44 | 1:46:45 | +57:32 |
| 123569 | #467 | Darren Andreula & Melinda FordAUS · X 55-59 · AG #467 | AUS | X 55-59 | 1:46:45 | +57:32 |
| 123570 | #4049 | Garth Mckeown & Georgina LoughreyIRL · X 45-49 · AG #4049 | IRL | X 45-49 | 1:46:46 | +57:33 |
| 123571 | #43696 | Jershon Wihongi & Oshan WihongiNZL · X 30-34 · AG #43696 | NZL | X 30-34 | 1:46:46 | +57:33 |
| 123572 | #8354 | Teah Mcconochie & Logan SeemannCAN · X 16-24 · AG #8354 | CAN | X 16-24 | 1:46:46 | +57:33 |
| 123573 | #15223 | Raman Arora & Saloni Bajaj AroraIND · X 35-39 · AG #15223 | IND | X 35-39 | 1:46:46 | +57:33 |
| 123574 | #8355 | Madison Harken & Tanner ObaraUSA · X 16-24 · AG #8355 | USA | X 16-24 | 1:46:46 | +57:33 |
| 123575 | #8356 | Romain Golisset & kenza TadjineFRA · X 16-24 · AG #8356 | FRA | X 16-24 | 1:46:46 | +57:33 |
Pagina 4,943 di 5,379